sensor_id;sensor_type;location;lat;lon;timestamp;P1;durP1;ratioP1;P2;durP2;ratioP2
49051;SDS011;34866;48.670;18.260;2023-02-13T00:00:12;34.33;;;13.32;;
49051;SDS011;34866;48.670;18.260;2023-02-13T00:02:40;16.10;;;9.80;;
49051;SDS011;34866;48.670;18.260;2023-02-13T00:05:06;31.95;;;10.35;;
49051;SDS011;34866;48.670;18.260;2023-02-13T00:07:32;29.63;;;11.60;;
49051;SDS011;34866;48.670;18.260;2023-02-13T00:09:59;18.17;;;9.48;;
49051;SDS011;34866;48.670;18.260;2023-02-13T00:12:24;23.23;;;11.25;;
49051;SDS011;34866;48.670;18.260;2023-02-13T00:14:50;22.98;;;11.35;;
49051;SDS011;34866;48.670;18.260;2023-02-13T00:17:16;31.60;;;14.43;;
49051;SDS011;34866;48.670;18.260;2023-02-13T00:19:43;23.67;;;12.02;;
49051;SDS011;34866;48.670;18.260;2023-02-13T00:22:08;25.30;;;13.63;;
49051;SDS011;34866;48.670;18.260;2023-02-13T00:24:34;19.80;;;10.23;;
49051;SDS011;34866;48.670;18.260;2023-02-13T00:27:13;25.80;;;10.70;;
49051;SDS011;34866;48.670;18.260;2023-02-13T00:29:39;31.08;;;13.32;;
49051;SDS011;34866;48.670;18.260;2023-02-13T00:32:07;22.63;;;9.85;;
49051;SDS011;34866;48.670;18.260;2023-02-13T00:34:34;31.77;;;12.90;;
49051;SDS011;34866;48.670;18.260;2023-02-13T00:37:00;34.33;;;11.45;;
49051;SDS011;34866;48.670;18.260;2023-02-13T00:39:26;28.95;;;12.55;;
49051;SDS011;34866;48.670;18.260;2023-02-13T00:41:52;27.33;;;12.50;;
49051;SDS011;34866;48.670;18.260;2023-02-13T00:44:17;25.55;;;11.77;;
49051;SDS011;34866;48.670;18.260;2023-02-13T00:46:43;27.02;;;14.27;;
49051;SDS011;34866;48.670;18.260;2023-02-13T00:49:09;25.02;;;11.13;;
49051;SDS011;34866;48.670;18.260;2023-02-13T00:51:34;22.17;;;9.85;;
49051;SDS011;34866;48.670;18.260;2023-02-13T00:54:01;30.40;;;11.77;;
49051;SDS011;34866;48.670;18.260;2023-02-13T00:56:27;31.25;;;12.13;;
49051;SDS011;34866;48.670;18.260;2023-02-13T00:58:54;31.85;;;13.50;;
49051;SDS011;34866;48.670;18.260;2023-02-13T01:01:19;25.27;;;13.93;;
49051;SDS011;34866;48.670;18.260;2023-02-13T01:03:45;36.22;;;12.50;;
49051;SDS011;34866;48.670;18.260;2023-02-13T01:06:11;30.88;;;12.93;;
49051;SDS011;34866;48.670;18.260;2023-02-13T01:08:40;28.20;;;13.35;;
49051;SDS011;34866;48.670;18.260;2023-02-13T01:11:07;31.88;;;12.35;;
49051;SDS011;34866;48.670;18.260;2023-02-13T01:13:33;25.85;;;11.88;;
49051;SDS011;34866;48.670;18.260;2023-02-13T01:15:59;35.55;;;14.43;;
49051;SDS011;34866;48.670;18.260;2023-02-13T01:18:24;25.23;;;11.77;;
49051;SDS011;34866;48.670;18.260;2023-02-13T01:20:58;43.10;;;15.73;;
49051;SDS011;34866;48.670;18.260;2023-02-13T01:23:32;28.23;;;14.45;;
49051;SDS011;34866;48.670;18.260;2023-02-13T01:26:02;29.50;;;11.40;;
49051;SDS011;34866;48.670;18.260;2023-02-13T01:28:28;35.17;;;13.90;;
49051;SDS011;34866;48.670;18.260;2023-02-13T01:30:54;40.42;;;16.25;;
49051;SDS011;34866;48.670;18.260;2023-02-13T01:33:21;28.17;;;13.38;;
49051;SDS011;34866;48.670;18.260;2023-02-13T01:35:48;34.13;;;11.00;;
49051;SDS011;34866;48.670;18.260;2023-02-13T01:38:14;35.38;;;12.45;;
49051;SDS011;34866;48.670;18.260;2023-02-13T01:40:47;21.48;;;12.32;;
49051;SDS011;34866;48.670;18.260;2023-02-13T01:43:17;18.00;;;9.20;;
49051;SDS011;34866;48.670;18.260;2023-02-13T01:45:47;28.52;;;10.48;;
49051;SDS011;34866;48.670;18.260;2023-02-13T01:48:18;32.53;;;11.68;;
49051;SDS011;34866;48.670;18.260;2023-02-13T01:55:48;24.52;;;11.63;;
49051;SDS011;34866;48.670;18.260;2023-02-13T01:58:23;30.67;;;9.90;;
49051;SDS011;34866;48.670;18.260;2023-02-13T02:00:51;20.88;;;10.20;;
49051;SDS011;34866;48.670;18.260;2023-02-13T02:03:18;29.88;;;11.35;;
49051;SDS011;34866;48.670;18.260;2023-02-13T02:05:48;19.33;;;9.15;;
49051;SDS011;34866;48.670;18.260;2023-02-13T02:08:19;27.40;;;11.50;;
49051;SDS011;34866;48.670;18.260;2023-02-13T02:10:45;25.83;;;12.82;;
49051;SDS011;34866;48.670;18.260;2023-02-13T02:13:12;17.35;;;10.25;;
49051;SDS011;34866;48.670;18.260;2023-02-13T02:15:43;24.13;;;12.45;;
49051;SDS011;34866;48.670;18.260;2023-02-13T02:18:16;30.13;;;11.32;;
49051;SDS011;34866;48.670;18.260;2023-02-13T02:32:24;29.60;;;10.57;;
49051;SDS011;34866;48.670;18.260;2023-02-13T02:41:00;18.60;;;9.57;;
49051;SDS011;34866;48.670;18.260;2023-02-13T02:46:55;22.90;;;9.05;;
49051;SDS011;34866;48.670;18.260;2023-02-13T02:50:14;18.90;;;8.23;;
49051;SDS011;34866;48.670;18.260;2023-02-13T02:58:23;25.60;;;11.70;;
49051;SDS011;34866;48.670;18.260;2023-02-13T03:01:15;23.58;;;7.95;;
49051;SDS011;34866;48.670;18.260;2023-02-13T03:04:02;16.73;;;9.77;;
49051;SDS011;34866;48.670;18.260;2023-02-13T03:09:18;23.60;;;9.05;;
49051;SDS011;34866;48.670;18.260;2023-02-13T03:12:05;20.02;;;8.07;;
49051;SDS011;34866;48.670;18.260;2023-02-13T03:14:51;13.73;;;6.75;;
49051;SDS011;34866;48.670;18.260;2023-02-13T03:17:20;18.42;;;10.82;;
49051;SDS011;34866;48.670;18.260;2023-02-13T03:31:41;17.63;;;9.65;;
49051;SDS011;34866;48.670;18.260;2023-02-13T03:34:21;11.43;;;6.95;;
49051;SDS011;34866;48.670;18.260;2023-02-13T03:36:51;20.83;;;10.13;;
49051;SDS011;34866;48.670;18.260;2023-02-13T03:45:13;10.63;;;6.10;;
49051;SDS011;34866;48.670;18.260;2023-02-13T03:48:05;11.60;;;7.10;;
49051;SDS011;34866;48.670;18.260;2023-02-13T03:50:53;13.95;;;6.55;;
49051;SDS011;34866;48.670;18.260;2023-02-13T03:53:21;20.10;;;9.23;;
49051;SDS011;34866;48.670;18.260;2023-02-13T03:55:48;19.27;;;7.18;;
49051;SDS011;34866;48.670;18.260;2023-02-13T03:58:35;27.73;;;6.32;;
49051;SDS011;34866;48.670;18.260;2023-02-13T04:01:27;13.15;;;6.93;;
49051;SDS011;34866;48.670;18.260;2023-02-13T04:04:10;14.05;;;7.25;;
49051;SDS011;34866;48.670;18.260;2023-02-13T04:09:36;12.35;;;6.90;;
49051;SDS011;34866;48.670;18.260;2023-02-13T04:20:38;20.25;;;6.38;;
49051;SDS011;34866;48.670;18.260;2023-02-13T04:23:05;14.13;;;6.72;;
49051;SDS011;34866;48.670;18.260;2023-02-13T04:25:32;13.40;;;7.78;;
49051;SDS011;34866;48.670;18.260;2023-02-13T04:27:59;14.65;;;7.55;;
49051;SDS011;34866;48.670;18.260;2023-02-13T04:30:25;17.75;;;6.50;;
49051;SDS011;34866;48.670;18.260;2023-02-13T04:32:51;16.48;;;8.05;;
49051;SDS011;34866;48.670;18.260;2023-02-13T04:35:18;13.00;;;7.88;;
49051;SDS011;34866;48.670;18.260;2023-02-13T04:37:44;14.32;;;6.78;;
49051;SDS011;34866;48.670;18.260;2023-02-13T04:40:12;15.27;;;7.13;;
49051;SDS011;34866;48.670;18.260;2023-02-13T04:42:38;10.27;;;5.35;;
49051;SDS011;34866;48.670;18.260;2023-02-13T04:45:07;15.55;;;7.68;;
49051;SDS011;34866;48.670;18.260;2023-02-13T04:47:34;12.40;;;5.43;;
49051;SDS011;34866;48.670;18.260;2023-02-13T04:49:59;16.75;;;6.95;;
49051;SDS011;34866;48.670;18.260;2023-02-13T04:52:25;19.48;;;8.93;;
49051;SDS011;34866;48.670;18.260;2023-02-13T04:54:51;32.83;;;11.20;;
49051;SDS011;34866;48.670;18.260;2023-02-13T04:57:16;18.27;;;8.80;;
49051;SDS011;34866;48.670;18.260;2023-02-13T04:59:42;15.95;;;9.77;;
49051;SDS011;34866;48.670;18.260;2023-02-13T05:02:08;26.30;;;11.98;;
49051;SDS011;34866;48.670;18.260;2023-02-13T05:04:35;20.75;;;10.68;;
49051;SDS011;34866;48.670;18.260;2023-02-13T05:07:01;22.48;;;12.48;;
49051;SDS011;34866;48.670;18.260;2023-02-13T05:09:26;26.05;;;10.38;;
49051;SDS011;34866;48.670;18.260;2023-02-13T05:11:53;23.27;;;10.45;;
49051;SDS011;34866;48.670;18.260;2023-02-13T05:14:19;24.05;;;9.23;;
49051;SDS011;34866;48.670;18.260;2023-02-13T05:16:45;21.75;;;9.63;;
49051;SDS011;34866;48.670;18.260;2023-02-13T05:19:11;16.67;;;8.30;;
49051;SDS011;34866;48.670;18.260;2023-02-13T05:21:40;23.45;;;11.23;;
49051;SDS011;34866;48.670;18.260;2023-02-13T05:24:24;22.00;;;9.27;;
49051;SDS011;34866;48.670;18.260;2023-02-13T05:26:50;21.92;;;8.15;;
49051;SDS011;34866;48.670;18.260;2023-02-13T05:29:18;18.65;;;8.63;;
49051;SDS011;34866;48.670;18.260;2023-02-13T05:31:46;21.38;;;10.65;;
49051;SDS011;34866;48.670;18.260;2023-02-13T05:34:12;14.65;;;8.27;;
49051;SDS011;34866;48.670;18.260;2023-02-13T05:36:38;21.27;;;8.13;;
49051;SDS011;34866;48.670;18.260;2023-02-13T05:39:04;18.52;;;7.57;;
49051;SDS011;34866;48.670;18.260;2023-02-13T05:41:30;19.05;;;8.73;;
49051;SDS011;34866;48.670;18.260;2023-02-13T05:43:55;15.25;;;8.32;;
49051;SDS011;34866;48.670;18.260;2023-02-13T05:46:21;19.00;;;7.95;;
49051;SDS011;34866;48.670;18.260;2023-02-13T05:48:48;22.13;;;11.00;;
49051;SDS011;34866;48.670;18.260;2023-02-13T05:51:34;17.45;;;8.82;;
49051;SDS011;34866;48.670;18.260;2023-02-13T05:54:03;37.13;;;8.45;;
49051;SDS011;34866;48.670;18.260;2023-02-13T05:56:29;16.25;;;8.98;;
49051;SDS011;34866;48.670;18.260;2023-02-13T05:58:55;20.88;;;9.35;;
49051;SDS011;34866;48.670;18.260;2023-02-13T06:01:22;27.58;;;12.70;;
49051;SDS011;34866;48.670;18.260;2023-02-13T06:03:48;17.75;;;9.98;;
49051;SDS011;34866;48.670;18.260;2023-02-13T06:06:19;14.73;;;9.15;;
49051;SDS011;34866;48.670;18.260;2023-02-13T06:08:46;23.67;;;8.13;;
49051;SDS011;34866;48.670;18.260;2023-02-13T06:11:12;16.33;;;7.97;;
49051;SDS011;34866;48.670;18.260;2023-02-13T06:13:38;19.42;;;8.43;;
49051;SDS011;34866;48.670;18.260;2023-02-13T06:16:11;13.70;;;7.32;;
49051;SDS011;34866;48.670;18.260;2023-02-13T06:18:38;13.35;;;7.57;;
49051;SDS011;34866;48.670;18.260;2023-02-13T06:21:04;14.82;;;5.97;;
49051;SDS011;34866;48.670;18.260;2023-02-13T06:23:31;15.10;;;6.05;;
49051;SDS011;34866;48.670;18.260;2023-02-13T06:26:04;16.55;;;6.85;;
49051;SDS011;34866;48.670;18.260;2023-02-13T06:28:33;28.90;;;8.23;;
49051;SDS011;34866;48.670;18.260;2023-02-13T06:30:59;18.13;;;6.13;;
49051;SDS011;34866;48.670;18.260;2023-02-13T06:33:26;14.50;;;6.25;;
49051;SDS011;34866;48.670;18.260;2023-02-13T06:35:52;14.75;;;6.35;;
49051;SDS011;34866;48.670;18.260;2023-02-13T06:38:19;25.70;;;9.68;;
49051;SDS011;34866;48.670;18.260;2023-02-13T06:40:45;25.48;;;9.38;;
49051;SDS011;34866;48.670;18.260;2023-02-13T06:43:12;21.80;;;8.82;;
49051;SDS011;34866;48.670;18.260;2023-02-13T06:45:38;20.42;;;8.48;;
49051;SDS011;34866;48.670;18.260;2023-02-13T06:48:04;22.30;;;9.48;;
49051;SDS011;34866;48.670;18.260;2023-02-13T06:50:30;19.30;;;8.15;;
49051;SDS011;34866;48.670;18.260;2023-02-13T06:52:55;19.45;;;10.75;;
49051;SDS011;34866;48.670;18.260;2023-02-13T06:55:21;24.77;;;7.88;;
49051;SDS011;34866;48.670;18.260;2023-02-13T06:57:48;16.80;;;8.88;;
49051;SDS011;34866;48.670;18.260;2023-02-13T07:00:14;14.77;;;7.47;;
49051;SDS011;34866;48.670;18.260;2023-02-13T07:02:41;25.88;;;11.70;;
49051;SDS011;34866;48.670;18.260;2023-02-13T07:05:08;27.27;;;13.73;;
49051;SDS011;34866;48.670;18.260;2023-02-13T07:07:36;24.13;;;12.65;;
49051;SDS011;34866;48.670;18.260;2023-02-13T07:10:03;26.58;;;12.32;;
49051;SDS011;34866;48.670;18.260;2023-02-13T07:12:31;28.60;;;12.88;;
49051;SDS011;34866;48.670;18.260;2023-02-13T07:14:57;34.75;;;14.30;;
49051;SDS011;34866;48.670;18.260;2023-02-13T07:17:23;41.38;;;15.30;;
49051;SDS011;34866;48.670;18.260;2023-02-13T07:19:51;35.60;;;15.30;;
49051;SDS011;34866;48.670;18.260;2023-02-13T07:22:17;36.13;;;14.63;;
49051;SDS011;34866;48.670;18.260;2023-02-13T07:24:43;32.47;;;13.00;;
49051;SDS011;34866;48.670;18.260;2023-02-13T07:27:08;31.75;;;11.68;;
49051;SDS011;34866;48.670;18.260;2023-02-13T07:29:34;36.45;;;14.77;;
49051;SDS011;34866;48.670;18.260;2023-02-13T07:32:00;40.60;;;16.35;;
49051;SDS011;34866;48.670;18.260;2023-02-13T07:34:26;35.78;;;13.57;;
49051;SDS011;34866;48.670;18.260;2023-02-13T07:36:51;43.40;;;16.23;;
49051;SDS011;34866;48.670;18.260;2023-02-13T07:39:17;41.28;;;14.90;;
49051;SDS011;34866;48.670;18.260;2023-02-13T07:41:43;35.45;;;13.75;;
49051;SDS011;34866;48.670;18.260;2023-02-13T07:44:09;35.80;;;11.85;;
49051;SDS011;34866;48.670;18.260;2023-02-13T07:46:35;30.23;;;10.05;;
49051;SDS011;34866;48.670;18.260;2023-02-13T07:49:00;24.70;;;9.45;;
49051;SDS011;34866;48.670;18.260;2023-02-13T07:51:26;25.65;;;10.00;;
49051;SDS011;34866;48.670;18.260;2023-02-13T07:53:53;20.58;;;7.15;;
49051;SDS011;34866;48.670;18.260;2023-02-13T07:56:19;19.45;;;8.88;;
49051;SDS011;34866;48.670;18.260;2023-02-13T07:58:45;21.00;;;7.85;;
49051;SDS011;34866;48.670;18.260;2023-02-13T08:01:12;20.50;;;8.70;;
49051;SDS011;34866;48.670;18.260;2023-02-13T08:03:40;14.13;;;7.63;;
49051;SDS011;34866;48.670;18.260;2023-02-13T08:06:06;22.30;;;8.43;;
49051;SDS011;34866;48.670;18.260;2023-02-13T08:08:32;19.63;;;8.10;;
49051;SDS011;34866;48.670;18.260;2023-02-13T08:11:05;24.08;;;8.68;;
49051;SDS011;34866;48.670;18.260;2023-02-13T08:13:52;20.60;;;7.63;;
49051;SDS011;34866;48.670;18.260;2023-02-13T08:16:17;23.88;;;10.30;;
49051;SDS011;34866;48.670;18.260;2023-02-13T08:18:43;20.38;;;6.75;;
49051;SDS011;34866;48.670;18.260;2023-02-13T08:21:08;22.80;;;8.23;;
49051;SDS011;34866;48.670;18.260;2023-02-13T08:23:34;21.63;;;9.50;;
49051;SDS011;34866;48.670;18.260;2023-02-13T08:26:00;22.60;;;8.75;;
49051;SDS011;34866;48.670;18.260;2023-02-13T08:28:27;25.67;;;9.20;;
49051;SDS011;34866;48.670;18.260;2023-02-13T08:30:53;17.80;;;8.00;;
49051;SDS011;34866;48.670;18.260;2023-02-13T08:33:19;18.27;;;8.38;;
49051;SDS011;34866;48.670;18.260;2023-02-13T08:35:44;32.75;;;11.15;;
49051;SDS011;34866;48.670;18.260;2023-02-13T08:38:10;22.60;;;8.50;;
49051;SDS011;34866;48.670;18.260;2023-02-13T08:40:36;25.13;;;10.50;;
49051;SDS011;34866;48.670;18.260;2023-02-13T08:43:02;23.13;;;10.05;;
49051;SDS011;34866;48.670;18.260;2023-02-13T08:45:30;28.25;;;12.43;;
49051;SDS011;34866;48.670;18.260;2023-02-13T08:47:56;37.55;;;11.07;;
49051;SDS011;34866;48.670;18.260;2023-02-13T08:50:23;33.50;;;14.07;;
49051;SDS011;34866;48.670;18.260;2023-02-13T08:53:03;33.30;;;13.57;;
49051;SDS011;34866;48.670;18.260;2023-02-13T08:55:29;26.02;;;13.35;;
49051;SDS011;34866;48.670;18.260;2023-02-13T08:57:59;24.40;;;12.00;;
49051;SDS011;34866;48.670;18.260;2023-02-13T09:00:26;30.20;;;12.02;;
49051;SDS011;34866;48.670;18.260;2023-02-13T09:02:52;25.42;;;10.57;;
49051;SDS011;34866;48.670;18.260;2023-02-13T09:05:18;25.75;;;10.25;;
49051;SDS011;34866;48.670;18.260;2023-02-13T09:07:45;16.20;;;7.82;;
49051;SDS011;34866;48.670;18.260;2023-02-13T09:10:11;16.35;;;6.95;;
49051;SDS011;34866;48.670;18.260;2023-02-13T09:12:37;17.88;;;7.03;;
49051;SDS011;34866;48.670;18.260;2023-02-13T09:15:03;17.17;;;7.53;;
49051;SDS011;34866;48.670;18.260;2023-02-13T09:17:29;17.75;;;7.65;;
49051;SDS011;34866;48.670;18.260;2023-02-13T09:19:55;19.63;;;7.60;;
49051;SDS011;34866;48.670;18.260;2023-02-13T09:22:21;18.33;;;8.40;;
49051;SDS011;34866;48.670;18.260;2023-02-13T09:24:46;19.20;;;7.65;;
49051;SDS011;34866;48.670;18.260;2023-02-13T09:27:12;17.73;;;8.95;;
49051;SDS011;34866;48.670;18.260;2023-02-13T09:29:38;17.98;;;8.07;;
49051;SDS011;34866;48.670;18.260;2023-02-13T09:32:04;19.65;;;8.25;;
49051;SDS011;34866;48.670;18.260;2023-02-13T09:34:30;15.10;;;7.03;;
49051;SDS011;34866;48.670;18.260;2023-02-13T09:36:55;19.67;;;8.38;;
49051;SDS011;34866;48.670;18.260;2023-02-13T09:39:21;21.55;;;8.75;;
49051;SDS011;34866;48.670;18.260;2023-02-13T09:41:47;20.23;;;10.48;;
49051;SDS011;34866;48.670;18.260;2023-02-13T09:44:18;22.58;;;9.65;;
49051;SDS011;34866;48.670;18.260;2023-02-13T09:49:34;22.98;;;10.07;;
49051;SDS011;34866;48.670;18.260;2023-02-13T09:52:02;26.08;;;10.85;;
49051;SDS011;34866;48.670;18.260;2023-02-13T09:54:28;25.23;;;10.05;;
49051;SDS011;34866;48.670;18.260;2023-02-13T09:57:05;24.73;;;9.88;;
49051;SDS011;34866;48.670;18.260;2023-02-13T09:59:55;19.77;;;9.35;;
49051;SDS011;34866;48.670;18.260;2023-02-13T10:16:20;27.30;;;9.27;;
49051;SDS011;34866;48.670;18.260;2023-02-13T10:21:29;22.70;;;8.65;;
49051;SDS011;34866;48.670;18.260;2023-02-13T10:24:08;28.58;;;14.88;;
49051;SDS011;34866;48.670;18.260;2023-02-13T10:26:36;20.67;;;9.55;;
49051;SDS011;34866;48.670;18.260;2023-02-13T10:32:14;18.05;;;6.45;;
49051;SDS011;34866;48.670;18.260;2023-02-13T10:34:44;19.75;;;8.82;;
49051;SDS011;34866;48.670;18.260;2023-02-13T10:37:15;15.02;;;7.05;;
49051;SDS011;34866;48.670;18.260;2023-02-13T10:39:47;21.00;;;7.93;;
49051;SDS011;34866;48.670;18.260;2023-02-13T10:42:22;19.45;;;9.18;;
49051;SDS011;34866;48.670;18.260;2023-02-13T10:58:17;20.50;;;11.02;;
49051;SDS011;34866;48.670;18.260;2023-02-13T11:00:52;19.40;;;10.68;;
49051;SDS011;34866;48.670;18.260;2023-02-13T11:03:23;20.58;;;9.73;;
49051;SDS011;34866;48.670;18.260;2023-02-13T11:05:52;20.63;;;9.57;;
49051;SDS011;34866;48.670;18.260;2023-02-13T11:08:32;17.95;;;9.32;;
49051;SDS011;34866;48.670;18.260;2023-02-13T11:19:57;20.05;;;7.95;;
49051;SDS011;34866;48.670;18.260;2023-02-13T11:22:12;21.55;;;9.40;;
49051;SDS011;34866;48.670;18.260;2023-02-13T11:24:39;22.30;;;10.07;;
49051;SDS011;34866;48.670;18.260;2023-02-13T11:27:07;21.52;;;10.65;;
49051;SDS011;34866;48.670;18.260;2023-02-13T11:29:50;18.08;;;9.95;;
49051;SDS011;34866;48.670;18.260;2023-02-13T11:34:47;18.92;;;9.23;;
49051;SDS011;34866;48.670;18.260;2023-02-13T11:37:19;19.02;;;9.38;;
49051;SDS011;34866;48.670;18.260;2023-02-13T11:39:54;19.52;;;9.82;;
49051;SDS011;34866;48.670;18.260;2023-02-13T11:42:31;22.38;;;10.48;;
49051;SDS011;34866;48.670;18.260;2023-02-13T11:45:04;18.35;;;10.18;;
49051;SDS011;34866;48.670;18.260;2023-02-13T11:47:44;17.45;;;9.77;;
49051;SDS011;34866;48.670;18.260;2023-02-13T11:53:01;21.10;;;11.07;;
49051;SDS011;34866;48.670;18.260;2023-02-13T11:55:31;20.67;;;11.38;;
49051;SDS011;34866;48.670;18.260;2023-02-13T11:58:00;22.02;;;10.18;;
49051;SDS011;34866;48.670;18.260;2023-02-13T12:00:47;25.92;;;9.40;;
49051;SDS011;34866;48.670;18.260;2023-02-13T12:03:29;20.63;;;10.20;;
49051;SDS011;34866;48.670;18.260;2023-02-13T12:08:38;20.60;;;9.30;;
49051;SDS011;34866;48.670;18.260;2023-02-13T12:13:52;20.88;;;8.20;;
49051;SDS011;34866;48.670;18.260;2023-02-13T12:16:38;23.70;;;9.55;;
49051;SDS011;34866;48.670;18.260;2023-02-13T12:19:10;20.50;;;8.93;;
49051;SDS011;34866;48.670;18.260;2023-02-13T12:21:47;20.05;;;9.52;;
49051;SDS011;34866;48.670;18.260;2023-02-13T12:26:56;24.38;;;10.07;;
49051;SDS011;34866;48.670;18.260;2023-02-13T12:42:22;26.55;;;9.93;;
49051;SDS011;34866;48.670;18.260;2023-02-13T12:45:20;23.90;;;10.07;;
49051;SDS011;34866;48.670;18.260;2023-02-13T12:55:54;24.98;;;8.77;;
49051;SDS011;34866;48.670;18.260;2023-02-13T13:04:36;10.82;;;4.47;;
49051;SDS011;34866;48.670;18.260;2023-02-13T13:07:26;12.52;;;3.88;;
49051;SDS011;34866;48.670;18.260;2023-02-13T13:15:48;12.55;;;3.92;;
49051;SDS011;34866;48.670;18.260;2023-02-13T13:21:02;10.85;;;3.33;;
49051;SDS011;34866;48.670;18.260;2023-02-13T13:23:41;9.88;;;3.03;;
49051;SDS011;34866;48.670;18.260;2023-02-13T13:29:04;9.07;;;3.43;;
49051;SDS011;34866;48.670;18.260;2023-02-13T13:31:43;13.57;;;3.65;;
49051;SDS011;34866;48.670;18.260;2023-02-13T13:34:22;13.68;;;4.38;;
49051;SDS011;34866;48.670;18.260;2023-02-13T13:36:52;14.07;;;4.80;;
49051;SDS011;34866;48.670;18.260;2023-02-13T13:45:00;14.38;;;4.88;;
49051;SDS011;34866;48.670;18.260;2023-02-13T13:47:37;10.52;;;3.67;;
49051;SDS011;34866;48.670;18.260;2023-02-13T13:50:24;9.07;;;4.10;;
49051;SDS011;34866;48.670;18.260;2023-02-13T13:58:34;12.23;;;4.97;;
49051;SDS011;34866;48.670;18.260;2023-02-13T14:03:39;10.13;;;4.47;;
49051;SDS011;34866;48.670;18.260;2023-02-13T14:06:09;10.43;;;4.38;;
49051;SDS011;34866;48.670;18.260;2023-02-13T14:11:05;12.38;;;4.78;;
49051;SDS011;34866;48.670;18.260;2023-02-13T14:13:49;14.60;;;5.00;;
49051;SDS011;34866;48.670;18.260;2023-02-13T14:16:35;12.10;;;5.53;;
49051;SDS011;34866;48.670;18.260;2023-02-13T14:19:05;14.13;;;3.92;;
49051;SDS011;34866;48.670;18.260;2023-02-13T14:21:48;8.25;;;3.88;;
49051;SDS011;34866;48.670;18.260;2023-02-13T14:24:15;8.90;;;3.10;;
49051;SDS011;34866;48.670;18.260;2023-02-13T14:26:48;6.32;;;2.70;;
49051;SDS011;34866;48.670;18.260;2023-02-13T14:29:24;12.15;;;3.70;;
49051;SDS011;34866;48.670;18.260;2023-02-13T14:34:24;7.28;;;3.90;;
49051;SDS011;34866;48.670;18.260;2023-02-13T14:37:01;9.85;;;3.47;;
49051;SDS011;34866;48.670;18.260;2023-02-13T14:40:11;10.38;;;3.55;;
49051;SDS011;34866;48.670;18.260;2023-02-13T14:42:34;11.15;;;4.43;;
49051;SDS011;34866;48.670;18.260;2023-02-13T14:45:02;9.23;;;3.00;;
49051;SDS011;34866;48.670;18.260;2023-02-13T14:47:53;8.80;;;3.20;;
49051;SDS011;34866;48.670;18.260;2023-02-13T14:50:25;7.18;;;2.80;;
49051;SDS011;34866;48.670;18.260;2023-02-13T14:52:54;7.03;;;3.03;;
49051;SDS011;34866;48.670;18.260;2023-02-13T14:55:30;9.20;;;2.90;;
49051;SDS011;34866;48.670;18.260;2023-02-13T15:00:42;7.05;;;2.65;;
49051;SDS011;34866;48.670;18.260;2023-02-13T15:06:02;13.38;;;3.90;;
49051;SDS011;34866;48.670;18.260;2023-02-13T15:08:37;11.20;;;3.92;;
49051;SDS011;34866;48.670;18.260;2023-02-13T15:11:09;9.90;;;5.03;;
49051;SDS011;34866;48.670;18.260;2023-02-13T15:14:14;13.57;;;5.43;;
49051;SDS011;34866;48.670;18.260;2023-02-13T15:16:45;15.57;;;5.25;;
49051;SDS011;34866;48.670;18.260;2023-02-13T15:19:16;15.82;;;5.15;;
49051;SDS011;34866;48.670;18.260;2023-02-13T15:21:58;14.43;;;6.28;;
49051;SDS011;34866;48.670;18.260;2023-02-13T15:24:26;15.00;;;6.47;;
49051;SDS011;34866;48.670;18.260;2023-02-13T15:27:03;19.23;;;6.70;;
49051;SDS011;34866;48.670;18.260;2023-02-13T15:29:31;14.05;;;5.75;;
49051;SDS011;34866;48.670;18.260;2023-02-13T15:31:57;15.02;;;6.78;;
49051;SDS011;34866;48.670;18.260;2023-02-13T15:34:30;15.57;;;5.80;;
49051;SDS011;34866;48.670;18.260;2023-02-13T15:37:00;11.93;;;6.03;;
49051;SDS011;34866;48.670;18.260;2023-02-13T15:39:28;15.23;;;5.78;;
49051;SDS011;34866;48.670;18.260;2023-02-13T15:41:56;13.90;;;5.88;;
49051;SDS011;34866;48.670;18.260;2023-02-13T15:44:28;18.42;;;7.55;;
49051;SDS011;34866;48.670;18.260;2023-02-13T15:47:06;18.15;;;6.38;;
49051;SDS011;34866;48.670;18.260;2023-02-13T15:49:41;16.80;;;7.30;;
49051;SDS011;34866;48.670;18.260;2023-02-13T15:52:17;17.65;;;6.05;;
49051;SDS011;34866;48.670;18.260;2023-02-13T15:54:57;17.50;;;6.32;;
49051;SDS011;34866;48.670;18.260;2023-02-13T15:57:23;12.60;;;5.47;;
49051;SDS011;34866;48.670;18.260;2023-02-13T15:59:51;12.80;;;5.10;;
49051;SDS011;34866;48.670;18.260;2023-02-13T16:02:23;17.88;;;5.88;;
49051;SDS011;34866;48.670;18.260;2023-02-13T16:04:54;11.65;;;5.22;;
49051;SDS011;34866;48.670;18.260;2023-02-13T16:07:20;16.30;;;5.30;;
49051;SDS011;34866;48.670;18.260;2023-02-13T16:09:46;15.38;;;4.72;;
49051;SDS011;34866;48.670;18.260;2023-02-13T16:14:52;11.20;;;4.95;;
49051;SDS011;34866;48.670;18.260;2023-02-13T16:20:07;18.88;;;5.25;;
49051;SDS011;34866;48.670;18.260;2023-02-13T16:22:45;18.70;;;6.05;;
49051;SDS011;34866;48.670;18.260;2023-02-13T16:25:17;13.25;;;5.20;;
49051;SDS011;34866;48.670;18.260;2023-02-13T16:27:48;10.27;;;4.25;;
49051;SDS011;34866;48.670;18.260;2023-02-13T16:33:21;9.48;;;3.70;;
49051;SDS011;34866;48.670;18.260;2023-02-13T16:38:37;9.77;;;4.32;;
49051;SDS011;34866;48.670;18.260;2023-02-13T16:43:56;6.93;;;3.22;;
49051;SDS011;34866;48.670;18.260;2023-02-13T16:46:24;6.15;;;3.03;;
49051;SDS011;34866;48.670;18.260;2023-02-13T16:54:04;8.43;;;3.65;;
49051;SDS011;34866;48.670;18.260;2023-02-13T16:56:37;7.50;;;3.55;;
49051;SDS011;34866;48.670;18.260;2023-02-13T17:01:38;6.80;;;3.22;;
49051;SDS011;34866;48.670;18.260;2023-02-13T17:04:20;7.20;;;3.05;;
49051;SDS011;34866;48.670;18.260;2023-02-13T17:06:47;9.02;;;3.47;;
49051;SDS011;34866;48.670;18.260;2023-02-13T17:09:19;11.35;;;3.80;;
49051;SDS011;34866;48.670;18.260;2023-02-13T17:11:45;11.93;;;4.90;;
49051;SDS011;34866;48.670;18.260;2023-02-13T17:14:15;10.13;;;3.63;;
49051;SDS011;34866;48.670;18.260;2023-02-13T17:16:42;13.02;;;4.70;;
49051;SDS011;34866;48.670;18.260;2023-02-13T17:19:08;11.82;;;4.32;;
49051;SDS011;34866;48.670;18.260;2023-02-13T17:21:34;10.00;;;4.53;;
49051;SDS011;34866;48.670;18.260;2023-02-13T17:24:00;9.18;;;3.63;;
49051;SDS011;34866;48.670;18.260;2023-02-13T17:26:26;9.25;;;3.95;;
49051;SDS011;34866;48.670;18.260;2023-02-13T17:28:53;10.32;;;4.50;;
49051;SDS011;34866;48.670;18.260;2023-02-13T17:31:18;10.32;;;4.53;;
49051;SDS011;34866;48.670;18.260;2023-02-13T17:33:44;10.65;;;4.38;;
49051;SDS011;34866;48.670;18.260;2023-02-13T17:36:10;12.80;;;3.58;;
49051;SDS011;34866;48.670;18.260;2023-02-13T17:38:38;10.30;;;4.05;;
49051;SDS011;34866;48.670;18.260;2023-02-13T17:41:05;9.48;;;4.70;;
49051;SDS011;34866;48.670;18.260;2023-02-13T17:43:38;10.13;;;4.47;;
49051;SDS011;34866;48.670;18.260;2023-02-13T17:46:04;7.95;;;3.28;;
49051;SDS011;34866;48.670;18.260;2023-02-13T17:48:29;9.98;;;4.50;;
49051;SDS011;34866;48.670;18.260;2023-02-13T17:50:55;16.20;;;6.03;;
49051;SDS011;34866;48.670;18.260;2023-02-13T17:53:25;30.00;;;8.98;;
49051;SDS011;34866;48.670;18.260;2023-02-13T17:55:54;23.10;;;9.20;;
49051;SDS011;34866;48.670;18.260;2023-02-13T17:58:20;22.75;;;9.77;;
49051;SDS011;34866;48.670;18.260;2023-02-13T18:00:46;18.83;;;8.30;;